sensor_id;sensor_type;location;lat;lon;timestamp;temperature;humidity
2723;DHT22;1369;53.216;10.396;2022-09-17T00:01:59;13.10;99.90
2723;DHT22;1369;53.216;10.396;2022-09-17T00:04:25;13.10;99.90
2723;DHT22;1369;53.216;10.396;2022-09-17T00:06:50;13.20;99.90
2723;DHT22;1369;53.216;10.396;2022-09-17T00:09:16;13.20;99.90
2723;DHT22;1369;53.216;10.396;2022-09-17T00:11:42;13.20;99.90
2723;DHT22;1369;53.216;10.396;2022-09-17T00:14:12;13.20;99.90
2723;DHT22;1369;53.216;10.396;2022-09-17T00:16:42;13.20;99.90
2723;DHT22;1369;53.216;10.396;2022-09-17T00:19:13;13.20;99.90
2723;DHT22;1369;53.216;10.396;2022-09-17T00:21:40;13.20;99.90
2723;DHT22;1369;53.216;10.396;2022-09-17T00:24:06;13.10;99.90
2723;DHT22;1369;53.216;10.396;2022-09-17T00:26:33;13.10;99.90
2723;DHT22;1369;53.216;10.396;2022-09-17T00:28:59;13.00;99.90
2723;DHT22;1369;53.216;10.396;2022-09-17T00:31:26;13.00;99.90
2723;DHT22;1369;53.216;10.396;2022-09-17T00:33:52;12.90;99.90
2723;DHT22;1369;53.216;10.396;2022-09-17T00:36:18;12.80;99.90
2723;DHT22;1369;53.216;10.396;2022-09-17T00:38:51;12.80;99.90
2723;DHT22;1369;53.216;10.396;2022-09-17T00:41:17;12.80;99.90
2723;DHT22;1369;53.216;10.396;2022-09-17T00:43:46;12.80;99.90
2723;DHT22;1369;53.216;10.396;2022-09-17T00:48:53;12.90;99.90
2723;DHT22;1369;53.216;10.396;2022-09-17T00:51:24;12.90;99.90
2723;DHT22;1369;53.216;10.396;2022-09-17T00:53:51;12.90;99.90
2723;DHT22;1369;53.216;10.396;2022-09-17T00:56:26;12.90;99.90
2723;DHT22;1369;53.216;10.396;2022-09-17T00:58:53;12.90;99.90
2723;DHT22;1369;53.216;10.396;2022-09-17T01:01:21;12.90;99.90
2723;DHT22;1369;53.216;10.396;2022-09-17T01:03:47;12.80;99.90
2723;DHT22;1369;53.216;10.396;2022-09-17T01:06:21;12.80;99.90
2723;DHT22;1369;53.216;10.396;2022-09-17T01:11:49;12.70;99.90
2723;DHT22;1369;53.216;10.396;2022-09-17T01:17:39;12.70;99.90
2723;DHT22;1369;53.216;10.396;2022-09-17T01:25:52;12.50;99.90
2723;DHT22;1369;53.216;10.396;2022-09-17T01:28:44;12.40;99.90
2723;DHT22;1369;53.216;10.396;2022-09-17T01:32:15;12.40;99.90
2723;DHT22;1369;53.216;10.396;2022-09-17T01:34:40;12.40;99.90
2723;DHT22;1369;53.216;10.396;2022-09-17T01:37:36;12.40;99.90
2723;DHT22;1369;53.216;10.396;2022-09-17T01:40:23;12.40;99.90
2723;DHT22;1369;53.216;10.396;2022-09-17T01:45:42;12.20;99.90
2723;DHT22;1369;53.216;10.396;2022-09-17T01:48:16;12.20;99.90
2723;DHT22;1369;53.216;10.396;2022-09-17T01:50:56;12.20;99.90
2723;DHT22;1369;53.216;10.396;2022-09-17T01:53:50;12.10;99.90
2723;DHT22;1369;53.216;10.396;2022-09-17T01:56:21;12.10;99.90
2723;DHT22;1369;53.216;10.396;2022-09-17T01:58:56;12.10;99.90
2723;DHT22;1369;53.216;10.396;2022-09-17T02:01:24;12.10;99.90
2723;DHT22;1369;53.216;10.396;2022-09-17T02:04:18;12.00;99.90
2723;DHT22;1369;53.216;10.396;2022-09-17T02:06:46;12.00;99.90
2723;DHT22;1369;53.216;10.396;2022-09-17T02:09:20;12.00;99.90
2723;DHT22;1369;53.216;10.396;2022-09-17T02:11:51;12.00;99.90
2723;DHT22;1369;53.216;10.396;2022-09-17T02:14:26;12.00;99.90
2723;DHT22;1369;53.216;10.396;2022-09-17T02:16:59;12.00;99.90
2723;DHT22;1369;53.216;10.396;2022-09-17T02:19:30;11.90;99.90
2723;DHT22;1369;53.216;10.396;2022-09-17T02:22:08;11.90;99.90
2723;DHT22;1369;53.216;10.396;2022-09-17T02:24:46;12.00;99.90
2723;DHT22;1369;53.216;10.396;2022-09-17T02:29:59;12.00;99.90
2723;DHT22;1369;53.216;10.396;2022-09-17T02:32:24;11.90;99.90
2723;DHT22;1369;53.216;10.396;2022-09-17T02:34:50;11.90;99.90
2723;DHT22;1369;53.216;10.396;2022-09-17T02:37:16;11.90;99.90
2723;DHT22;1369;53.216;10.396;2022-09-17T02:39:41;11.90;99.90
2723;DHT22;1369;53.216;10.396;2022-09-17T02:42:30;11.90;99.90
2723;DHT22;1369;53.216;10.396;2022-09-17T02:45:13;11.90;99.90
2723;DHT22;1369;53.216;10.396;2022-09-17T02:48:05;11.80;99.90
2723;DHT22;1369;53.216;10.396;2022-09-17T02:51:10;11.80;99.90
2723;DHT22;1369;53.216;10.396;2022-09-17T02:53:58;11.80;99.90
2723;DHT22;1369;53.216;10.396;2022-09-17T02:56:50;11.80;99.90
2723;DHT22;1369;53.216;10.396;2022-09-17T02:59:44;11.80;99.90
2723;DHT22;1369;53.216;10.396;2022-09-17T03:02:21;11.80;99.90
2723;DHT22;1369;53.216;10.396;2022-09-17T03:04:48;11.80;99.90
2723;DHT22;1369;53.216;10.396;2022-09-17T03:07:17;11.70;99.90
2723;DHT22;1369;53.216;10.396;2022-09-17T03:09:43;11.70;99.90
2723;DHT22;1369;53.216;10.396;2022-09-17T03:12:10;11.70;99.90
2723;DHT22;1369;53.216;10.396;2022-09-17T03:14:36;11.70;99.90
2723;DHT22;1369;53.216;10.396;2022-09-17T03:17:02;11.80;99.90
2723;DHT22;1369;53.216;10.396;2022-09-17T03:19:28;12.00;99.90
2723;DHT22;1369;53.216;10.396;2022-09-17T03:21:53;12.00;99.90
2723;DHT22;1369;53.216;10.396;2022-09-17T03:24:19;12.00;99.90
2723;DHT22;1369;53.216;10.396;2022-09-17T03:26:44;12.10;99.90
2723;DHT22;1369;53.216;10.396;2022-09-17T03:29:12;12.00;99.90
2723;DHT22;1369;53.216;10.396;2022-09-17T03:31:37;12.00;99.90
2723;DHT22;1369;53.216;10.396;2022-09-17T03:34:03;12.00;99.90
2723;DHT22;1369;53.216;10.396;2022-09-17T03:36:28;12.00;99.90
2723;DHT22;1369;53.216;10.396;2022-09-17T03:38:55;11.90;99.90
2723;DHT22;1369;53.216;10.396;2022-09-17T03:41:21;11.90;99.90
2723;DHT22;1369;53.216;10.396;2022-09-17T03:43:46;11.90;99.90
2723;DHT22;1369;53.216;10.396;2022-09-17T03:46:12;11.90;99.90
2723;DHT22;1369;53.216;10.396;2022-09-17T03:48:37;11.90;99.90
2723;DHT22;1369;53.216;10.396;2022-09-17T03:51:04;12.00;99.90
2723;DHT22;1369;53.216;10.396;2022-09-17T03:53:30;12.00;99.90
2723;DHT22;1369;53.216;10.396;2022-09-17T03:56:00;12.10;99.90
2723;DHT22;1369;53.216;10.396;2022-09-17T03:58:27;12.10;99.90
2723;DHT22;1369;53.216;10.396;2022-09-17T04:00:53;12.10;99.90
2723;DHT22;1369;53.216;10.396;2022-09-17T04:03:22;12.10;99.90
2723;DHT22;1369;53.216;10.396;2022-09-17T04:05:48;12.10;99.90
2723;DHT22;1369;53.216;10.396;2022-09-17T04:08:14;12.20;99.90
2723;DHT22;1369;53.216;10.396;2022-09-17T04:10:39;12.20;99.90
2723;DHT22;1369;53.216;10.396;2022-09-17T04:13:05;12.10;99.90
2723;DHT22;1369;53.216;10.396;2022-09-17T04:15:30;12.10;99.90
2723;DHT22;1369;53.216;10.396;2022-09-17T04:17:56;12.10;99.90
2723;DHT22;1369;53.216;10.396;2022-09-17T04:20:23;12.10;99.90
2723;DHT22;1369;53.216;10.396;2022-09-17T04:22:48;12.10;99.90
2723;DHT22;1369;53.216;10.396;2022-09-17T04:25:14;12.10;99.90
2723;DHT22;1369;53.216;10.396;2022-09-17T04:27:39;12.10;99.90
2723;DHT22;1369;53.216;10.396;2022-09-17T04:30:05;12.10;99.90
2723;DHT22;1369;53.216;10.396;2022-09-17T04:32:31;12.10;99.90
2723;DHT22;1369;53.216;10.396;2022-09-17T04:34:56;12.10;99.90
2723;DHT22;1369;53.216;10.396;2022-09-17T04:37:22;12.10;99.90
2723;DHT22;1369;53.216;10.396;2022-09-17T04:39:50;12.10;99.90
2723;DHT22;1369;53.216;10.396;2022-09-17T04:42:16;12.20;99.90
2723;DHT22;1369;53.216;10.396;2022-09-17T04:44:41;12.10;99.90
2723;DHT22;1369;53.216;10.396;2022-09-17T04:47:07;12.10;99.90
2723;DHT22;1369;53.216;10.396;2022-09-17T04:49:32;12.10;99.90
2723;DHT22;1369;53.216;10.396;2022-09-17T04:51:58;12.10;99.90
2723;DHT22;1369;53.216;10.396;2022-09-17T04:54:23;12.10;99.90
2723;DHT22;1369;53.216;10.396;2022-09-17T04:56:49;12.10;99.90
2723;DHT22;1369;53.216;10.396;2022-09-17T04:59:14;12.10;99.90
2723;DHT22;1369;53.216;10.396;2022-09-17T05:01:40;12.10;99.90
2723;DHT22;1369;53.216;10.396;2022-09-17T05:04:07;12.10;99.90
2723;DHT22;1369;53.216;10.396;2022-09-17T05:06:33;12.10;99.90
2723;DHT22;1369;53.216;10.396;2022-09-17T05:08:58;12.10;99.90
2723;DHT22;1369;53.216;10.396;2022-09-17T05:11:24;12.10;99.90
2723;DHT22;1369;53.216;10.396;2022-09-17T05:13:49;12.10;99.90
2723;DHT22;1369;53.216;10.396;2022-09-17T05:16:15;12.10;99.90
2723;DHT22;1369;53.216;10.396;2022-09-17T05:18:41;12.10;99.90
2723;DHT22;1369;53.216;10.396;2022-09-17T05:21:06;12.10;99.90
2723;DHT22;1369;53.216;10.396;2022-09-17T05:23:32;12.10;99.90
2723;DHT22;1369;53.216;10.396;2022-09-17T05:25:59;12.20;99.90
2723;DHT22;1369;53.216;10.396;2022-09-17T05:28:25;12.20;99.90
2723;DHT22;1369;53.216;10.396;2022-09-17T05:30:50;12.20;99.90
2723;DHT22;1369;53.216;10.396;2022-09-17T05:33:16;12.10;99.90
2723;DHT22;1369;53.216;10.396;2022-09-17T05:35:42;12.10;99.90
2723;DHT22;1369;53.216;10.396;2022-09-17T05:38:09;12.10;99.90
2723;DHT22;1369;53.216;10.396;2022-09-17T05:40:34;12.10;99.90
2723;DHT22;1369;53.216;10.396;2022-09-17T05:43:03;12.10;99.90
2723;DHT22;1369;53.216;10.396;2022-09-17T05:45:29;12.10;99.90
2723;DHT22;1369;53.216;10.396;2022-09-17T05:47:59;12.10;99.90
2723;DHT22;1369;53.216;10.396;2022-09-17T05:50:25;12.10;99.90
2723;DHT22;1369;53.216;10.396;2022-09-17T05:52:51;12.10;99.90
2723;DHT22;1369;53.216;10.396;2022-09-17T05:55:18;12.10;99.90
2723;DHT22;1369;53.216;10.396;2022-09-17T05:57:44;12.20;99.90
2723;DHT22;1369;53.216;10.396;2022-09-17T06:00:10;12.10;99.90
2723;DHT22;1369;53.216;10.396;2022-09-17T06:02:36;12.10;99.90
2723;DHT22;1369;53.216;10.396;2022-09-17T06:05:02;12.10;99.90
2723;DHT22;1369;53.216;10.396;2022-09-17T06:07:28;12.10;99.90
2723;DHT22;1369;53.216;10.396;2022-09-17T06:09:54;12.10;99.90
2723;DHT22;1369;53.216;10.396;2022-09-17T06:12:19;12.20;99.90
2723;DHT22;1369;53.216;10.396;2022-09-17T06:14:45;12.20;99.90
2723;DHT22;1369;53.216;10.396;2022-09-17T06:17:10;12.30;99.90
2723;DHT22;1369;53.216;10.396;2022-09-17T06:19:36;12.40;99.90
2723;DHT22;1369;53.216;10.396;2022-09-17T06:22:01;12.50;99.90
2723;DHT22;1369;53.216;10.396;2022-09-17T06:24:27;12.50;99.90
2723;DHT22;1369;53.216;10.396;2022-09-17T06:26:52;12.50;99.90
2723;DHT22;1369;53.216;10.396;2022-09-17T06:29:18;12.50;99.90
2723;DHT22;1369;53.216;10.396;2022-09-17T06:31:44;12.50;99.90
2723;DHT22;1369;53.216;10.396;2022-09-17T06:34:10;12.50;99.90
2723;DHT22;1369;53.216;10.396;2022-09-17T06:36:35;12.60;99.90
2723;DHT22;1369;53.216;10.396;2022-09-17T06:39:01;12.60;99.90
2723;DHT22;1369;53.216;10.396;2022-09-17T06:41:26;12.70;99.90
2723;DHT22;1369;53.216;10.396;2022-09-17T06:43:52;12.70;99.90
2723;DHT22;1369;53.216;10.396;2022-09-17T06:46:18;12.80;99.90
2723;DHT22;1369;53.216;10.396;2022-09-17T06:48:44;12.80;99.90
2723;DHT22;1369;53.216;10.396;2022-09-17T06:51:10;12.90;99.90
2723;DHT22;1369;53.216;10.396;2022-09-17T06:53:36;13.00;99.90
2723;DHT22;1369;53.216;10.396;2022-09-17T06:56:03;13.10;99.90
2723;DHT22;1369;53.216;10.396;2022-09-17T06:58:29;13.20;99.90
2723;DHT22;1369;53.216;10.396;2022-09-17T07:01:02;13.20;99.90
2723;DHT22;1369;53.216;10.396;2022-09-17T07:03:28;13.20;99.90
2723;DHT22;1369;53.216;10.396;2022-09-17T07:05:54;13.20;99.90
2723;DHT22;1369;53.216;10.396;2022-09-17T07:08:20;13.10;99.90
2723;DHT22;1369;53.216;10.396;2022-09-17T07:10:45;13.10;99.90
2723;DHT22;1369;53.216;10.396;2022-09-17T07:13:11;13.00;99.90
2723;DHT22;1369;53.216;10.396;2022-09-17T07:15:36;12.90;99.90
2723;DHT22;1369;53.216;10.396;2022-09-17T07:18:09;12.80;99.90
2723;DHT22;1369;53.216;10.396;2022-09-17T07:20:36;12.80;99.90
2723;DHT22;1369;53.216;10.396;2022-09-17T07:23:01;12.80;99.90
2723;DHT22;1369;53.216;10.396;2022-09-17T07:25:27;12.80;99.90
2723;DHT22;1369;53.216;10.396;2022-09-17T07:27:53;12.80;99.90
2723;DHT22;1369;53.216;10.396;2022-09-17T07:30:19;12.90;99.90
2723;DHT22;1369;53.216;10.396;2022-09-17T07:32:45;12.90;99.90
2723;DHT22;1369;53.216;10.396;2022-09-17T07:35:11;13.00;99.90
2723;DHT22;1369;53.216;10.396;2022-09-17T07:37:37;13.10;99.90
2723;DHT22;1369;53.216;10.396;2022-09-17T07:40:03;13.30;99.90
2723;DHT22;1369;53.216;10.396;2022-09-17T07:42:31;13.40;99.90
2723;DHT22;1369;53.216;10.396;2022-09-17T07:44:57;13.50;99.90
2723;DHT22;1369;53.216;10.396;2022-09-17T07:47:22;13.70;99.90
2723;DHT22;1369;53.216;10.396;2022-09-17T07:49:48;13.90;99.90
2723;DHT22;1369;53.216;10.396;2022-09-17T07:52:13;14.00;99.90
2723;DHT22;1369;53.216;10.396;2022-09-17T07:54:39;14.20;99.90
2723;DHT22;1369;53.216;10.396;2022-09-17T07:57:04;14.30;99.90
2723;DHT22;1369;53.216;10.396;2022-09-17T07:59:30;14.40;99.90
2723;DHT22;1369;53.216;10.396;2022-09-17T08:01:56;14.50;99.90
2723;DHT22;1369;53.216;10.396;2022-09-17T08:04:21;14.60;99.90
2723;DHT22;1369;53.216;10.396;2022-09-17T08:06:47;14.90;99.90
2723;DHT22;1369;53.216;10.396;2022-09-17T08:09:13;15.30;99.90
2723;DHT22;1369;53.216;10.396;2022-09-17T08:11:40;15.60;99.90
2723;DHT22;1369;53.216;10.396;2022-09-17T08:14:08;15.60;99.90
2723;DHT22;1369;53.216;10.396;2022-09-17T08:16:33;15.60;99.90
2723;DHT22;1369;53.216;10.396;2022-09-17T08:18:59;15.50;99.90
2723;DHT22;1369;53.216;10.396;2022-09-17T08:21:25;15.50;99.90
2723;DHT22;1369;53.216;10.396;2022-09-17T08:23:50;15.60;99.90
2723;DHT22;1369;53.216;10.396;2022-09-17T08:26:18;16.10;99.90
2723;DHT22;1369;53.216;10.396;2022-09-17T08:28:46;16.50;99.90
2723;DHT22;1369;53.216;10.396;2022-09-17T08:31:13;16.80;99.90
2723;DHT22;1369;53.216;10.396;2022-09-17T08:33:39;17.50;99.90
2723;DHT22;1369;53.216;10.396;2022-09-17T08:36:06;18.20;99.90
2723;DHT22;1369;53.216;10.396;2022-09-17T08:38:34;19.00;99.90
2723;DHT22;1369;53.216;10.396;2022-09-17T08:41:19;19.30;99.90
2723;DHT22;1369;53.216;10.396;2022-09-17T08:44:49;19.70;99.90
2723;DHT22;1369;53.216;10.396;2022-09-17T08:47:39;20.20;99.90
2723;DHT22;1369;53.216;10.396;2022-09-17T08:50:14;20.50;99.90
2723;DHT22;1369;53.216;10.396;2022-09-17T08:55:45;20.60;99.90
2723;DHT22;1369;53.216;10.396;2022-09-17T08:58:34;20.40;99.90
2723;DHT22;1369;53.216;10.396;2022-09-17T09:01:26;20.40;99.90
2723;DHT22;1369;53.216;10.396;2022-09-17T09:07:03;19.40;99.90
2723;DHT22;1369;53.216;10.396;2022-09-17T09:09:40;18.40;99.90
2723;DHT22;1369;53.216;10.396;2022-09-17T09:12:23;17.70;99.90
2723;DHT22;1369;53.216;10.396;2022-09-17T09:15:01;17.50;99.90
2723;DHT22;1369;53.216;10.396;2022-09-17T09:17:37;17.60;99.90
2723;DHT22;1369;53.216;10.396;2022-09-17T09:20:04;17.80;99.90
2723;DHT22;1369;53.216;10.396;2022-09-17T09:22:50;17.90;99.90
2723;DHT22;1369;53.216;10.396;2022-09-17T09:25:24;17.90;99.90
2723;DHT22;1369;53.216;10.396;2022-09-17T09:33:29;18.80;99.90
2723;DHT22;1369;53.216;10.396;2022-09-17T09:35:55;19.10;99.90
2723;DHT22;1369;53.216;10.396;2022-09-17T09:38:34;19.40;99.90
2723;DHT22;1369;53.216;10.396;2022-09-17T09:41:35;19.70;99.90
2723;DHT22;1369;53.216;10.396;2022-09-17T09:44:14;20.00;99.90
2723;DHT22;1369;53.216;10.396;2022-09-17T09:57:48;20.00;99.90
2723;DHT22;1369;53.216;10.396;2022-09-17T10:00:37;20.10;99.90
2723;DHT22;1369;53.216;10.396;2022-09-17T10:03:22;20.00;99.90
2723;DHT22;1369;53.216;10.396;2022-09-17T10:08:17;20.10;99.90
2723;DHT22;1369;53.216;10.396;2022-09-17T10:13:31;20.10;99.90
2723;DHT22;1369;53.216;10.396;2022-09-17T10:16:16;19.80;99.90
2723;DHT22;1369;53.216;10.396;2022-09-17T10:18:44;19.40;99.90
2723;DHT22;1369;53.216;10.396;2022-09-17T10:21:30;19.10;99.90
2723;DHT22;1369;53.216;10.396;2022-09-17T10:23:56;18.70;99.90
2723;DHT22;1369;53.216;10.396;2022-09-17T10:26:30;18.30;99.90
2723;DHT22;1369;53.216;10.396;2022-09-17T10:28:58;18.10;99.90
2723;DHT22;1369;53.216;10.396;2022-09-17T10:31:24;17.60;99.90
2723;DHT22;1369;53.216;10.396;2022-09-17T10:34:03;17.30;99.90
2723;DHT22;1369;53.216;10.396;2022-09-17T10:36:45;17.00;99.90
2723;DHT22;1369;53.216;10.396;2022-09-17T10:41:56;16.60;99.90
2723;DHT22;1369;53.216;10.396;2022-09-17T10:44:27;16.70;99.90
2723;DHT22;1369;53.216;10.396;2022-09-17T10:46:53;16.90;99.90
2723;DHT22;1369;53.216;10.396;2022-09-17T10:49:45;17.20;99.90
2723;DHT22;1369;53.216;10.396;2022-09-17T10:52:25;17.50;99.90
2723;DHT22;1369;53.216;10.396;2022-09-17T10:58:02;17.90;99.90
2723;DHT22;1369;53.216;10.396;2022-09-17T11:06:44;17.70;99.90
2723;DHT22;1369;53.216;10.396;2022-09-17T11:18:40;17.50;99.90
2723;DHT22;1369;53.216;10.396;2022-09-17T11:26:39;17.80;99.90
2723;DHT22;1369;53.216;10.396;2022-09-17T11:29:33;17.90;99.90
2723;DHT22;1369;53.216;10.396;2022-09-17T11:32:29;18.20;99.90
2723;DHT22;1369;53.216;10.396;2022-09-17T11:35:24;18.30;99.90
2723;DHT22;1369;53.216;10.396;2022-09-17T11:37:52;18.20;99.90
2723;DHT22;1369;53.216;10.396;2022-09-17T11:40:24;17.90;99.90
2723;DHT22;1369;53.216;10.396;2022-09-17T11:42:58;17.70;99.90
2723;DHT22;1369;53.216;10.396;2022-09-17T11:45:32;17.30;99.90
2723;DHT22;1369;53.216;10.396;2022-09-17T11:50:35;16.70;99.90
2723;DHT22;1369;53.216;10.396;2022-09-17T11:53:33;16.50;99.90
2723;DHT22;1369;53.216;10.396;2022-09-17T11:58:39;16.50;99.90
2723;DHT22;1369;53.216;10.396;2022-09-17T12:01:20;16.50;99.90
2723;DHT22;1369;53.216;10.396;2022-09-17T12:03:56;16.50;99.90
2723;DHT22;1369;53.216;10.396;2022-09-17T12:07:00;16.40;99.90
2723;DHT22;1369;53.216;10.396;2022-09-17T12:09:28;16.40;99.90
2723;DHT22;1369;53.216;10.396;2022-09-17T12:12:13;16.50;99.90
2723;DHT22;1369;53.216;10.396;2022-09-17T12:15:04;16.30;99.90
2723;DHT22;1369;53.216;10.396;2022-09-17T12:20:31;16.20;99.90
2723;DHT22;1369;53.216;10.396;2022-09-17T12:23:02;16.10;99.90
2723;DHT22;1369;53.216;10.396;2022-09-17T12:25:37;16.10;99.90
2723;DHT22;1369;53.216;10.396;2022-09-17T12:28:11;16.20;99.90
2723;DHT22;1369;53.216;10.396;2022-09-17T12:30:46;16.30;99.90
2723;DHT22;1369;53.216;10.396;2022-09-17T12:33:36;16.30;99.90
2723;DHT22;1369;53.216;10.396;2022-09-17T12:47:48;15.80;99.90
2723;DHT22;1369;53.216;10.396;2022-09-17T12:51:31;15.60;99.90
2723;DHT22;1369;53.216;10.396;2022-09-17T12:53:51;15.30;99.90
2723;DHT22;1369;53.216;10.396;2022-09-17T12:59:05;15.00;99.90
2723;DHT22;1369;53.216;10.396;2022-09-17T13:12:31;14.50;99.90
2723;DHT22;1369;53.216;10.396;2022-09-17T13:15:17;14.60;99.90
2723;DHT22;1369;53.216;10.396;2022-09-17T13:20:49;14.90;99.90
2723;DHT22;1369;53.216;10.396;2022-09-17T13:23:29;15.00;99.90
2723;DHT22;1369;53.216;10.396;2022-09-17T13:25:56;14.90;99.90
2723;DHT22;1369;53.216;10.396;2022-09-17T13:31:06;14.90;99.90
2723;DHT22;1369;53.216;10.396;2022-09-17T13:36:39;14.90;99.90
2723;DHT22;1369;53.216;10.396;2022-09-17T13:39:09;15.10;99.90
2723;DHT22;1369;53.216;10.396;2022-09-17T13:41:38;15.20;99.90
2723;DHT22;1369;53.216;10.396;2022-09-17T13:44:05;15.30;99.90
2723;DHT22;1369;53.216;10.396;2022-09-17T13:46:32;15.40;99.90
2723;DHT22;1369;53.216;10.396;2022-09-17T13:49:01;15.50;99.90
2723;DHT22;1369;53.216;10.396;2022-09-17T13:54:08;15.60;99.90
2723;DHT22;1369;53.216;10.396;2022-09-17T13:56:47;15.60;99.90
2723;DHT22;1369;53.216;10.396;2022-09-17T13:59:19;15.50;99.90
2723;DHT22;1369;53.216;10.396;2022-09-17T14:02:18;15.60;99.90
2723;DHT22;1369;53.216;10.396;2022-09-17T14:04:50;15.60;99.90
2723;DHT22;1369;53.216;10.396;2022-09-17T14:15:34;16.00;99.90
2723;DHT22;1369;53.216;10.396;2022-09-17T14:18:01;16.20;99.90
2723;DHT22;1369;53.216;10.396;2022-09-17T14:20:31;16.40;99.90
2723;DHT22;1369;53.216;10.396;2022-09-17T14:22:59;16.80;99.90
2723;DHT22;1369;53.216;10.396;2022-09-17T14:25:39;17.10;99.90
2723;DHT22;1369;53.216;10.396;2022-09-17T14:28:46;17.30;99.90
2723;DHT22;1369;53.216;10.396;2022-09-17T14:31:25;17.20;99.90
2723;DHT22;1369;53.216;10.396;2022-09-17T14:33:52;17.10;99.90
2723;DHT22;1369;53.216;10.396;2022-09-17T14:36:19;17.00;99.90
2723;DHT22;1369;53.216;10.396;2022-09-17T14:38:51;17.00;99.90
2723;DHT22;1369;53.216;10.396;2022-09-17T14:41:24;16.90;99.90
2723;DHT22;1369;53.216;10.396;2022-09-17T14:43:59;16.80;99.90
2723;DHT22;1369;53.216;10.396;2022-09-17T14:46:38;16.70;99.90
2723;DHT22;1369;53.216;10.396;2022-09-17T14:51:41;16.40;99.90
2723;DHT22;1369;53.216;10.396;2022-09-17T14:54:21;16.30;99.90
2723;DHT22;1369;53.216;10.396;2022-09-17T14:59:37;15.90;99.90
2723;DHT22;1369;53.216;10.396;2022-09-17T15:02:22;15.80;99.90
2723;DHT22;1369;53.216;10.396;2022-09-17T15:04:51;15.80;99.90
2723;DHT22;1369;53.216;10.396;2022-09-17T15:07:19;15.90;99.90
2723;DHT22;1369;53.216;10.396;2022-09-17T15:09:45;16.00;99.90
2723;DHT22;1369;53.216;10.396;2022-09-17T15:12:15;16.10;99.90
2723;DHT22;1369;53.216;10.396;2022-09-17T15:14:43;16.10;99.90
2723;DHT22;1369;53.216;10.396;2022-09-17T15:17:14;16.00;99.90
2723;DHT22;1369;53.216;10.396;2022-09-17T15:19:47;15.80;99.90
2723;DHT22;1369;53.216;10.396;2022-09-17T15:22:19;15.60;99.90
2723;DHT22;1369;53.216;10.396;2022-09-17T15:24:55;15.50;99.90
2723;DHT22;1369;53.216;10.396;2022-09-17T15:27:33;15.40;99.90
2723;DHT22;1369;53.216;10.396;2022-09-17T15:30:14;15.30;99.90
2723;DHT22;1369;53.216;10.396;2022-09-17T15:32:48;15.20;99.90
2723;DHT22;1369;53.216;10.396;2022-09-17T15:37:47;15.10;99.90
2723;DHT22;1369;53.216;10.396;2022-09-17T15:40:23;15.00;99.90
2723;DHT22;1369;53.216;10.396;2022-09-17T15:42:59;14.90;99.90
2723;DHT22;1369;53.216;10.396;2022-09-17T15:45:28;14.80;99.90
2723;DHT22;1369;53.216;10.396;2022-09-17T15:48:00;14.70;99.90
2723;DHT22;1369;53.216;10.396;2022-09-17T15:50:33;14.60;99.90
2723;DHT22;1369;53.216;10.396;2022-09-17T15:55:42;14.40;99.90
2723;DHT22;1369;53.216;10.396;2022-09-17T16:08:49;13.80;99.90
2723;DHT22;1369;53.216;10.396;2022-09-17T16:11:15;13.80;99.90
2723;DHT22;1369;53.216;10.396;2022-09-17T16:13:41;13.80;99.90
2723;DHT22;1369;53.216;10.396;2022-09-17T16:16:09;13.80;99.90
2723;DHT22;1369;53.216;10.396;2022-09-17T16:18:38;13.70;99.90
2723;DHT22;1369;53.216;10.396;2022-09-17T16:21:03;13.70;99.90
2723;DHT22;1369;53.216;10.396;2022-09-17T16:23:29;13.70;99.90
2723;DHT22;1369;53.216;10.396;2022-09-17T16:25:54;13.60;99.90
2723;DHT22;1369;53.216;10.396;2022-09-17T16:28:21;13.60;99.90
2723;DHT22;1369;53.216;10.396;2022-09-17T16:30:47;13.60;99.90
2723;DHT22;1369;53.216;10.396;2022-09-17T16:33:14;13.60;99.90
2723;DHT22;1369;53.216;10.396;2022-09-17T16:35:41;13.70;99.90
2723;DHT22;1369;53.216;10.396;2022-09-17T16:38:07;13.70;99.90
2723;DHT22;1369;53.216;10.396;2022-09-17T16:40:34;13.70;99.90
2723;DHT22;1369;53.216;10.396;2022-09-17T16:43:01;13.70;99.90
2723;DHT22;1369;53.216;10.396;2022-09-17T16:45:28;13.70;99.90
2723;DHT22;1369;53.216;10.396;2022-09-17T16:47:54;13.60;99.90
2723;DHT22;1369;53.216;10.396;2022-09-17T16:50:19;13.60;99.90
2723;DHT22;1369;53.216;10.396;2022-09-17T16:52:44;13.60;99.90
2723;DHT22;1369;53.216;10.396;2022-09-17T16:55:15;13.50;99.90
2723;DHT22;1369;53.216;10.396;2022-09-17T16:57:41;13.50;99.90
2723;DHT22;1369;53.216;10.396;2022-09-17T17:00:09;13.50;99.90
2723;DHT22;1369;53.216;10.396;2022-09-17T17:02:39;13.50;99.90
2723;DHT22;1369;53.216;10.396;2022-09-17T17:05:04;13.40;99.90
2723;DHT22;1369;53.216;10.396;2022-09-17T17:07:30;13.40;99.90
2723;DHT22;1369;53.216;10.396;2022-09-17T17:09:59;13.40;99.90
2723;DHT22;1369;53.216;10.396;2022-09-17T17:12:25;13.30;99.90
2723;DHT22;1369;53.216;10.396;2022-09-17T17:14:51;13.30;99.90
2723;DHT22;1369;53.216;10.396;2022-09-17T17:17:18;13.40;99.90
2723;DHT22;1369;53.216;10.396;2022-09-17T17:19:44;13.40;99.90
2723;DHT22;1369;53.216;10.396;2022-09-17T17:22:13;13.30;99.90
2723;DHT22;1369;53.216;10.396;2022-09-17T17:24:39;13.30;99.90
2723;DHT22;1369;53.216;10.396;2022-09-17T17:27:04;13.30;99.90
2723;DHT22;1369;53.216;10.396;2022-09-17T17:29:30;13.30;99.90
2723;DHT22;1369;53.216;10.396;2022-09-17T17:31:55;13.30;99.90
2723;DHT22;1369;53.216;10.396;2022-09-17T17:34:21;13.30;99.90
2723;DHT22;1369;53.216;10.396;2022-09-17T17:36:49;13.30;99.90
2723;DHT22;1369;53.216;10.396;2022-09-17T17:39:15;13.30;99.90
2723;DHT22;1369;53.216;10.396;2022-09-17T17:41:41;13.30;99.90
2723;DHT22;1369;53.216;10.396;2022-09-17T17:44:07;13.30;99.90
2723;DHT22;1369;53.216;10.396;2022-09-17T17:46:33;13.30;99.90
2723;DHT22;1369;53.216;10.396;2022-09-17T17:48:58;13.30;99.90
2723;DHT22;1369;53.216;10.396;2022-09-17T17:51:24;13.30;99.90
2723;DHT22;1369;53.216;10.396;2022-09-17T17:53:51;13.30;99.90
2723;DHT22;1369;53.216;10.396;2022-09-17T17:56:17;13.30;99.90
2723;DHT22;1369;53.216;10.396;2022-09-17T17:58:43;13.20;99.90
2723;DHT22;1369;53.216;10.396;2022-09-17T18:01:17;13.20;99.90
2723;DHT22;1369;53.216;10.396;2022-09-17T18:03:42;13.20;99.90
2723;DHT22;1369;53.216;10.396;2022-09-17T18:06:08;13.20;99.90
2723;DHT22;1369;53.216;10.396;2022-09-17T18:08:35;13.20;99.90
2723;DHT22;1369;53.216;10.396;2022-09-17T18:11:02;13.10;99.90
2723;DHT22;1369;53.216;10.396;2022-09-17T18:13:28;13.10;99.90
2723;DHT22;1369;53.216;10.396;2022-09-17T18:15:56;13.00;99.90
2723;DHT22;1369;53.216;10.396;2022-09-17T18:18:23;13.00;99.90
2723;DHT22;1369;53.216;10.396;2022-09-17T18:20:50;13.10;99.90
2723;DHT22;1369;53.216;10.396;2022-09-17T18:23:18;13.10;99.90
2723;DHT22;1369;53.216;10.396;2022-09-17T18:25:57;13.10;99.90
2723;DHT22;1369;53.216;10.396;2022-09-17T18:28:23;13.10;99.90
2723;DHT22;1369;53.216;10.396;2022-09-17T18:30:49;13.00;99.90
2723;DHT22;1369;53.216;10.396;2022-09-17T18:33:25;13.00;99.90
2723;DHT22;1369;53.216;10.396;2022-09-17T18:35:52;13.00;99.90
2723;DHT22;1369;53.216;10.396;2022-09-17T18:38:22;13.00;99.90